Time;durP1;ratioP1;P1;durP2;ratioP2;P2;SDS_P1;SDS_P2;PMS_P1;PMS_P2;Temp;Humidity;BMP_temperature;BMP_pressure;BME280_temperature;BME280_humidity;BME280_pressure;Samples;Min_cycle;Max_cycle;Signal;HPM_P1;HPM_P2
2023/10/14 00:04:43;;;;;;;11.98;3.90;;;;;;;19.21;72.07;99384.38;5027730;28;20069;-62
2023/10/14 00:07:17;;;;;;;7.70;4.18;;;;;;;19.16;71.88;99392.91;5034613;28;20139;-64
2023/10/14 00:09:44;;;;;;;16.13;5.65;;;;;;;19.10;72.86;99396.28;5045014;28;20057;-62
2023/10/14 00:12:15;;;;;;;14.93;6.03;;;;;;;19.05;73.31;99369.31;5046824;28;20076;-63
2023/10/14 00:14:45;;;;;;;12.02;5.70;;;;;;;19.04;73.91;99369.47;5033421;28;20049;-63
2023/10/14 00:17:19;;;;;;;8.90;4.57;;;;;;;18.93;73.66;99370.72;5028806;28;20053;-62
2023/10/14 00:19:49;;;;;;;11.85;6.03;;;;;;;18.93;74.89;99370.72;5011169;28;20099;-63
2023/10/14 00:22:20;;;;;;;16.15;6.43;;;;;;;18.82;76.10;99379.09;5016638;28;20598;-62
2023/10/14 00:24:48;;;;;;;11.38;5.43;;;;;;;18.75;76.88;99373.63;5011843;28;20057;-62
2023/10/14 00:27:16;;;;;;;12.13;5.57;;;;;;;18.66;78.60;99364.81;5030129;28;20080;-62
2023/10/14 00:29:43;;;;;;;13.65;5.80;;;;;;;18.62;79.39;99363.47;5029214;28;20053;-62
2023/10/14 00:32:11;;;;;;;10.88;5.00;;;;;;;18.51;80.10;99363.00;5025963;28;20145;-63
2023/10/14 00:34:38;;;;;;;16.88;4.97;;;;;;;18.45;79.67;99356.56;5026871;28;20401;-62
2023/10/14 00:37:08;;;;;;;15.68;4.90;;;;;;;18.42;79.20;99351.59;5031695;28;20599;-63
2023/10/14 00:39:36;;;;;;;11.35;4.68;;;;;;;18.47;79.94;99338.56;5026311;28;20680;-62
2023/10/14 00:42:05;;;;;;;14.55;5.07;;;;;;;18.43;79.88;99348.75;5033936;28;20108;-62
2023/10/14 00:44:33;;;;;;;11.05;4.65;;;;;;;18.44;79.49;99346.91;5015777;28;20111;-63
2023/10/14 00:47:06;;;;;;;17.52;5.25;;;;;;;18.51;79.40;99337.22;5026525;28;20492;-62
2023/10/14 00:49:34;;;;;;;11.18;4.93;;;;;;;18.44;80.04;99331.75;5026990;28;20080;-61
2023/10/14 00:52:10;;;;;;;19.65;5.05;;;;;;;18.44;79.81;99345.06;5020031;28;20088;-62
2023/10/14 00:59:47;;;;;;;20.67;5.00;;;;;;;18.45;79.55;99322.72;5029847;28;20543;-62
2023/10/14 01:02:18;;;;;;;17.00;5.03;;;;;;;18.52;79.04;99317.56;5014906;28;20046;-60
2023/10/14 01:04:53;;;;;;;16.23;4.95;;;;;;;18.58;78.79;99330.19;5030419;28;20073;-62
2023/10/14 01:07:21;;;;;;;16.17;4.57;;;;;;;18.68;77.99;99325.47;5030924;28;20111;-61
2023/10/14 01:09:52;;;;;;;12.60;4.47;;;;;;;18.76;77.55;99311.31;5030137;28;20072;-61
2023/10/14 01:12:26;;;;;;;12.10;4.45;;;;;;;18.79;77.48;99320.78;5026543;28;20107;-62
2023/10/14 01:14:58;;;;;;;10.60;4.60;;;;;;;18.78;77.97;99317.31;5027816;28;20064;-62
2023/10/14 01:17:29;;;;;;;10.77;3.85;;;;;;;18.74;78.97;99299.16;5029378;28;20483;-62
2023/10/14 01:20:00;;;;;;;9.70;4.22;;;;;;;18.69;78.97;99294.38;5024797;28;20057;-62
2023/10/14 01:22:29;;;;;;;13.73;4.32;;;;;;;18.67;79.14;99301.66;5024739;28;20176;-62
2023/10/14 01:24:56;;;;;;;14.98;4.70;;;;;;;18.64;79.52;99280.66;5029299;28;20050;-62
2023/10/14 01:27:25;;;;;;;7.10;3.75;;;;;;;18.64;79.67;99278.00;5027771;28;20641;-62
2023/10/14 01:29:52;;;;;;;11.45;4.35;;;;;;;18.59;79.69;99257.22;5023676;28;20695;-62
2023/10/14 01:38:00;;;;;;;17.27;4.70;;;;;;;18.52;80.25;99215.47;5011458;28;20050;-62
2023/10/14 01:42:58;;;;;;;9.32;3.95;;;;;;;18.46;81.13;99214.31;5028505;28;20049;-62
2023/10/14 01:45:39;;;;;;;11.55;4.15;;;;;;;18.45;80.86;99194.81;5030529;28;20045;-60
2023/10/14 01:50:50;;;;;;;13.55;5.45;;;;;;;18.47;81.94;99197.34;5024179;28;20149;-60
2023/10/14 01:53:18;;;;;;;13.43;4.72;;;;;;;18.49;82.57;99205.97;5024581;28;20136;-62
2023/10/14 01:55:47;;;;;;;9.88;4.22;;;;;;;18.48;83.12;99209.66;5002135;28;20457;-61
2023/10/14 01:58:29;;;;;;;6.40;3.90;;;;;;;18.43;84.30;99209.34;5026081;28;20049;-62
2023/10/14 02:01:00;;;;;;;10.23;3.90;;;;;;;18.38;84.65;99201.06;5023933;28;20523;-61
2023/10/14 02:03:32;;;;;;;9.45;4.05;;;;;;;18.32;85.52;99173.25;5024383;28;20140;-60
2023/10/14 02:06:10;;;;;;;9.30;3.95;;;;;;;18.31;85.96;99165.44;5025226;28;20070;-62
2023/10/14 02:08:38;;;;;;;9.20;4.60;;;;;;;18.22;86.29;99168.16;5023822;28;20058;-61
2023/10/14 02:11:06;;;;;;;9.00;4.07;;;;;;;18.19;86.93;99162.34;5027909;28;20088;-62
2023/10/14 02:13:36;;;;;;;10.15;4.80;;;;;;;18.16;87.22;99168.88;5024646;28;20623;-62
2023/10/14 02:16:07;;;;;;;10.57;4.53;;;;;;;18.13;87.19;99161.22;5026856;28;20137;-62
2023/10/14 02:18:37;;;;;;;10.57;4.50;;;;;;;18.13;87.66;99142.56;5024674;28;20081;-62
2023/10/14 02:21:06;;;;;;;11.20;4.40;;;;;;;18.09;88.04;99127.94;5028657;28;20144;-62
2023/10/14 02:23:44;;;;;;;12.52;5.00;;;;;;;18.08;88.66;99131.63;5028483;28;20073;-61
2023/10/14 02:26:11;;;;;;;8.52;4.35;;;;;;;18.03;89.15;99139.31;5008962;28;20168;-62
2023/10/14 02:28:41;;;;;;;9.60;3.88;;;;;;;17.96;89.55;99141.00;5026066;28;20457;-62
2023/10/14 02:31:17;;;;;;;9.32;4.65;;;;;;;17.98;89.33;99162.97;5022306;28;20401;-62
2023/10/14 02:33:45;;;;;;;12.60;4.53;;;;;;;17.98;89.81;99146.16;5025025;28;20053;-61
2023/10/14 02:36:16;;;;;;;9.45;4.20;;;;;;;18.00;89.10;99154.78;5025625;28;20069;-62
2023/10/14 02:38:52;;;;;;;16.63;4.57;;;;;;;18.01;89.53;99148.47;5027773;28;20123;-61
2023/10/14 02:41:21;;;;;;;11.77;4.53;;;;;;;17.98;89.51;99149.66;5008971;28;20467;-62
2023/10/14 02:43:49;;;;;;;13.18;3.85;;;;;;;17.98;88.99;99154.16;5024473;28;20148;-62
2023/10/14 02:46:25;;;;;;;13.32;5.05;;;;;;;18.03;88.22;99143.81;5027234;28;20489;-62
2023/10/14 02:48:53;;;;;;;16.27;4.47;;;;;;;18.06;88.31;99143.47;5020829;28;20154;-62
2023/10/14 02:51:42;;;;;;;11.23;4.35;;;;;;;18.06;87.63;99130.16;5023185;28;20119;-61
2023/10/14 02:55:18;;;;;;;11.88;4.15;;;;;;;18.10;87.12;99124.28;5026473;28;20152;-62
2023/10/14 02:57:12;;;;;;;10.52;4.10;;;;;;;18.16;86.15;99126.25;5010036;28;20850;-61
2023/10/14 03:07:29;;;;;;;14.55;5.07;;;;;;;18.38;83.04;99118.47;5025216;28;20057;-62
2023/10/14 03:10:11;;;;;;;10.43;4.18;;;;;;;18.40;83.09;99119.09;5023633;28;20054;-62
2023/10/14 03:12:39;;;;;;;11.15;4.50;;;;;;;18.44;81.40;99112.41;5020833;28;20661;-62
2023/10/14 03:15:18;;;;;;;13.02;3.92;;;;;;;18.52;80.57;99111.53;5026346;28;20137;-60
2023/10/14 03:17:55;;;;;;;13.65;4.63;;;;;;;18.56;79.38;99110.16;5022562;28;20073;-61
2023/10/14 03:23:17;;;;;;;11.63;4.07;;;;;;;18.77;76.28;99118.34;5021259;28;20145;-61
2023/10/14 03:25:49;;;;;;;10.48;4.82;;;;;;;18.80;76.47;99125.97;5027558;28;20073;-60
2023/10/14 03:28:19;;;;;;;12.43;5.30;;;;;;;18.91;75.16;99111.38;5027162;28;20072;-62
2023/10/14 03:30:56;;;;;;;11.00;4.13;;;;;;;19.00;74.85;99112.97;5020394;28;20049;-61
2023/10/14 03:33:27;;;;;;;10.38;4.25;;;;;;;19.05;74.47;99113.28;5026670;28;20392;-63
2023/10/14 03:36:07;;;;;;;13.52;4.70;;;;;;;19.07;74.21;99105.06;5021476;28;20152;-62
2023/10/14 03:41:17;;;;;;;12.13;4.70;;;;;;;19.07;74.70;99097.91;5025112;28;20061;-62
2023/10/14 03:43:59;;;;;;;11.18;4.47;;;;;;;19.09;74.50;99103.91;5028447;28;20524;-61
2023/10/14 03:46:35;;;;;;;11.02;5.15;;;;;;;19.09;74.63;99087.03;5026115;28;20041;-62
2023/10/14 03:49:06;;;;;;;;;;;;;;;19.10;75.04;99083.38;5024000;28;20074;-62
2023/10/14 03:51:40;;;;;;;14.15;5.15;;;;;;;19.07;74.67;99087.22;5026734;28;20011;-62
2023/10/14 03:54:08;;;;;;;10.55;5.00;;;;;;;19.12;74.79;99078.69;5027224;28;20077;-61
2023/10/14 03:56:38;;;;;;;10.68;4.65;;;;;;;19.12;74.67;99076.00;5021707;28;20057;-62
2023/10/14 03:59:06;;;;;;;19.02;5.72;;;;;;;19.11;74.75;99080.53;5025902;28;20084;-62
2023/10/14 04:04:20;;;;;;;8.00;4.97;;;;;;;19.08;75.20;99061.38;5021995;28;20085;-62
2023/10/14 04:07:02;;;;;;;13.70;5.65;;;;;;;19.06;75.35;99056.25;5025148;28;20416;-62
2023/10/14 04:09:44;;;;;;;11.23;5.28;;;;;;;19.04;75.63;99060.09;5023949;28;20072;-62
2023/10/14 04:12:37;;;;;;;11.55;5.07;;;;;;;19.00;75.90;99056.13;5026650;28;20574;-62
2023/10/14 04:15:15;;;;;;;12.88;5.18;;;;;;;18.94;76.01;99047.84;5024611;28;20682;-62
2023/10/14 04:17:48;;;;;;;12.27;5.30;;;;;;;18.94;76.23;99063.03;5027768;28;20136;-62
2023/10/14 04:20:22;;;;;;;13.02;4.95;;;;;;;18.93;76.31;99046.19;5025501;28;20073;-61
2023/10/14 04:22:52;;;;;;;10.13;4.53;;;;;;;18.93;76.56;99058.72;5022984;28;20136;-61
2023/10/14 04:25:22;;;;;;;16.10;5.32;;;;;;;18.87;77.43;99052.28;5004684;28;20168;-62
2023/10/14 04:35:23;;;;;;;14.85;5.65;;;;;;;18.79;77.31;99032.88;5028565;28;20111;-62
2023/10/14 04:37:52;;;;;;;10.35;4.72;;;;;;;18.79;77.87;99033.69;5032034;28;20143;-63
2023/10/14 04:43:19;;;;;;;11.45;5.85;;;;;;;18.69;78.84;99031.28;5031013;28;20148;-62
2023/10/14 04:48:49;;;;;;;10.35;5.43;;;;;;;18.52;79.53;99045.72;5027298;28;20073;-62
2023/10/14 04:51:18;;;;;;;11.50;5.30;;;;;;;18.52;79.48;99044.91;5028712;28;20140;-62
2023/10/14 04:53:46;;;;;;;15.32;6.07;;;;;;;18.45;80.42;99044.78;5023401;28;20166;-62
2023/10/14 04:56:32;;;;;;;12.57;4.43;;;;;;;18.44;80.53;99051.13;5023755;28;20050;-62
2023/10/14 04:58:59;;;;;;;12.40;5.70;;;;;;;18.35;83.43;99081.50;5022559;28;20546;-62
2023/10/14 05:01:27;;;;;;;14.40;5.45;;;;;;;18.18;87.01;99088.78;5023790;28;20180;-63
2023/10/14 05:03:58;;;;;;;14.40;5.90;;;;;;;18.06;89.05;99116.84;5021504;28;20219;-62
2023/10/14 05:06:47;;;;;;;15.15;6.18;;;;;;;17.73;92.72;99159.53;5026261;28;20143;-62
2023/10/14 05:09:27;;;;;;;12.15;5.63;;;;;;;17.66;98.35;99187.84;5027301;28;20092;-61
2023/10/14 05:11:57;;;;;;;13.32;6.47;;;;;;;17.25;100.00;99179.94;5028935;28;20076;-61
2023/10/14 05:14:37;;;;;;;14.82;6.05;;;;;;;17.07;100.00;99174.81;5030186;28;20135;-61
2023/10/14 05:19:43;;;;;;;13.45;7.03;;;;;;;16.75;100.00;99191.59;5028500;28;20126;-61
2023/10/14 05:22:23;;;;;;;18.75;6.80;;;;;;;16.63;100.00;99216.78;5026855;28;20443;-63
2023/10/14 05:24:54;;;;;;;19.27;7.47;;;;;;;16.62;100.00;99225.75;5007098;28;20089;-62
2023/10/14 05:27:22;;;;;;;19.50;6.43;;;;;;;16.53;100.00;99222.25;5026561;28;20065;-62
2023/10/14 05:29:52;;;;;;;9.45;5.68;;;;;;;16.48;100.00;99229.03;5035627;28;20075;-60
2023/10/14 05:32:24;;;;;;;13.45;5.32;;;;;;;16.44;100.00;99229.38;5038950;28;20057;-62
2023/10/14 05:34:53;;;;;;;13.00;5.35;;;;;;;16.38;100.00;99235.31;5039613;28;20392;-63
2023/10/14 05:37:21;;;;;;;9.57;5.10;;;;;;;16.29;100.00;99241.59;5038596;28;20104;-61
2023/10/14 05:39:54;;;;;;;11.02;4.88;;;;;;;16.29;100.00;99265.50;5029334;28;20113;-61
2023/10/14 05:42:22;;;;;;;9.88;4.65;;;;;;;16.18;100.00;99266.63;5029234;28;20500;-60
2023/10/14 05:44:57;;;;;;;8.18;3.95;;;;;;;16.18;100.00;99271.94;5029906;28;20088;-60
2023/10/14 05:47:28;;;;;;;8.90;4.07;;;;;;;16.11;100.00;99281.50;5029504;28;20080;-62
2023/10/14 05:49:56;;;;;;;6.75;2.30;;;;;;;15.81;100.00;99296.13;5022377;28;20103;-62
2023/10/14 05:52:27;;;;;;;5.05;1.55;;;;;;;15.54;100.00;99305.03;5029470;28;20464;-62
2023/10/14 05:54:55;;;;;;;6.28;1.40;;;;;;;15.42;100.00;99309.72;5030520;28;20053;-62
2023/10/14 05:57:23;;;;;;;1.10;0.88;;;;;;;15.24;100.00;99342.53;5028733;28;20077;-62
2023/10/14 05:59:50;;;;;;;2.83;0.98;;;;;;;14.77;100.00;99387.75;5028735;28;20076;-61
2023/10/14 06:02:18;;;;;;;2.30;0.90;;;;;;;14.65;100.00;99405.66;5032158;28;20540;-62
2023/10/14 06:04:50;;;;;;;2.70;0.85;;;;;;;14.36;100.00;99422.47;5028803;28;20077;-61
2023/10/14 06:07:18;;;;;;;1.10;0.63;;;;;;;14.14;100.00;99433.41;5027175;28;20132;-62
2023/10/14 06:09:45;;;;;;;1.90;0.90;;;;;;;13.80;100.00;99448.88;5023777;28;20144;-62
2023/10/14 06:12:13;;;;;;;1.25;0.80;;;;;;;13.79;100.00;99448.03;5020770;28;20136;-62
2023/10/14 06:14:42;;;;;;;1.67;0.82;;;;;;;13.70;100.00;99469.22;5028160;28;21341;-63
2023/10/14 06:17:14;;;;;;;1.33;0.82;;;;;;;13.62;100.00;99491.88;5026828;28;20132;-62
2023/10/14 06:19:42;;;;;;;1.08;0.80;;;;;;;13.56;100.00;99483.66;5019761;28;20085;-62
2023/10/14 06:22:13;;;;;;;3.80;1.00;;;;;;;13.47;100.00;99498.53;5024533;28;20049;-63
2023/10/14 06:24:42;;;;;;;1.27;0.80;;;;;;;13.40;100.00;99513.25;5028027;28;20453;-62
2023/10/14 06:27:20;;;;;;;3.75;0.85;;;;;;;13.31;100.00;99524.66;5026968;28;20053;-61
2023/10/14 06:29:49;;;;;;;4.28;0.80;;;;;;;13.26;100.00;99529.50;5025687;28;20145;-60
2023/10/14 06:32:16;;;;;;;5.45;0.93;;;;;;;13.14;100.00;99549.88;5024895;28;20050;-62
2023/10/14 06:34:57;;;;;;;1.80;0.80;;;;;;;12.99;100.00;99548.56;5023465;28;20111;-62
2023/10/14 06:37:26;;;;;;;3.58;1.00;;;;;;;12.90;100.00;99552.81;5024524;28;20095;-63
2023/10/14 06:39:56;;;;;;;2.05;0.82;;;;;;;13.01;100.00;99558.00;5024418;28;20140;-63
2023/10/14 06:42:26;;;;;;;3.92;1.00;;;;;;;12.95;100.00;99563.00;5027017;28;20136;-64
2023/10/14 06:44:54;;;;;;;5.05;1.10;;;;;;;12.91;100.00;99560.59;5022577;28;20521;-62
2023/10/14 06:47:22;;;;;;;2.20;1.00;;;;;;;12.94;100.00;99580.66;5025112;28;20096;-63
2023/10/14 06:49:50;;;;;;;2.10;0.68;;;;;;;12.98;100.00;99578.59;5023191;28;20456;-62
2023/10/14 06:52:18;;;;;;;2.03;0.80;;;;;;;12.88;100.00;99574.09;5024221;28;20088;-62
2023/10/14 06:54:47;;;;;;;1.90;0.85;;;;;;;12.92;100.00;99574.66;5025162;28;20602;-60
2023/10/14 06:57:16;;;;;;;1.90;0.88;;;;;;;12.90;100.00;99600.38;5025148;28;20084;-59
2023/10/14 06:59:45;;;;;;;2.30;0.80;;;;;;;12.87;100.00;99612.03;5021335;28;20058;-62
2023/10/14 07:02:12;;;;;;;4.88;1.38;;;;;;;12.97;100.00;99620.03;5021392;28;20465;-62
2023/10/14 07:04:40;;;;;;;3.40;1.00;;;;;;;12.90;100.00;99634.72;5007180;28;20049;-62
2023/10/14 07:07:09;;;;;;;4.20;1.00;;;;;;;12.82;100.00;99638.00;5023349;28;20107;-63
2023/10/14 07:09:38;;;;;;;2.75;1.20;;;;;;;12.82;100.00;99659.13;5023740;28;20103;-62
2023/10/14 07:12:13;;;;;;;4.45;1.38;;;;;;;12.89;100.00;99643.59;5025045;28;20457;-63
2023/10/14 07:14:41;;;;;;;;;;;;;;;12.91;100.00;99639.03;5023564;28;20126;-62
2023/10/14 07:17:08;;;;;;;2.97;0.90;;;;;;;12.94;100.00;99617.63;5025724;28;19964;-62
2023/10/14 07:19:35;;;;;;;4.45;1.75;;;;;;;12.98;100.00;99629.63;5027410;28;20076;-63
2023/10/14 07:22:07;;;;;;;7.30;1.42;;;;;;;12.98;100.00;99637.56;5028998;28;20057;-62
2023/10/14 07:24:35;;;;;;;1.98;1.00;;;;;;;13.00;100.00;99614.47;5024335;28;20164;-63
2023/10/14 07:27:03;;;;;;;4.90;1.00;;;;;;;13.04;100.00;99628.25;5026318;28;20562;-62
2023/10/14 07:29:31;;;;;;;3.80;1.45;;;;;;;13.02;100.00;99638.97;5025449;28;20152;-63
2023/10/14 07:31:58;;;;;;;2.58;1.13;;;;;;;13.05;100.00;99614.91;5023760;28;20080;-63
2023/10/14 07:34:25;;;;;;;5.30;1.60;;;;;;;13.01;100.00;99639.06;5002639;28;20172;-62
2023/10/14 07:36:53;;;;;;;4.18;1.13;;;;;;;13.03;100.00;99668.88;5024816;28;20105;-62
2023/10/14 07:39:30;;;;;;;3.47;1.05;;;;;;;12.91;100.00;99676.84;5026767;28;20132;-61
2023/10/14 07:41:57;;;;;;;4.07;1.00;;;;;;;12.81;100.00;99675.94;5025036;28;20072;-63
2023/10/14 07:44:25;;;;;;;5.07;1.15;;;;;;;12.86;100.00;99691.41;5022955;28;20466;-63
2023/10/14 07:46:54;;;;;;;3.50;1.38;;;;;;;12.84;100.00;99688.06;5021992;28;20085;-63
2023/10/14 07:49:21;;;;;;;5.82;1.13;;;;;;;12.96;100.00;99679.09;5022421;28;20125;-60
2023/10/14 07:51:54;;;;;;;3.33;1.52;;;;;;;13.07;100.00;99676.41;5013105;28;20062;-62
2023/10/14 07:54:21;;;;;;;2.28;0.90;;;;;;;13.30;100.00;99673.66;5023050;28;20049;-64
2023/10/14 07:56:49;;;;;;;3.58;1.15;;;;;;;13.31;100.00;99680.59;5017394;28;20050;-62
2023/10/14 07:59:16;;;;;;;3.15;1.10;;;;;;;13.39;100.00;99681.63;5025897;28;20052;-62
2023/10/14 08:01:45;;;;;;;5.03;1.17;;;;;;;13.62;100.00;99698.16;5024471;28;20382;-63
2023/10/14 08:04:17;;;;;;;5.40;1.40;;;;;;;13.86;100.00;99696.97;5024515;28;20081;-62
2023/10/14 08:06:46;;;;;;;7.47;1.25;;;;;;;13.96;100.00;99724.34;5030974;28;20050;-62
2023/10/14 08:09:28;;;;;;;5.30;1.17;;;;;;;14.05;100.00;99722.66;5027076;28;20049;-62
2023/10/14 08:11:56;;;;;;;8.13;1.50;;;;;;;13.77;100.00;99726.88;5024337;28;20133;-62
2023/10/14 08:14:23;;;;;;;5.88;1.17;;;;;;;14.10;100.00;99737.19;5027842;28;20439;-63
2023/10/14 08:16:50;;;;;;;5.47;1.90;;;;;;;13.99;100.00;99742.56;5014285;28;20081;-62
2023/10/14 08:19:21;;;;;;;7.50;1.52;;;;;;;14.04;100.00;99745.66;5034025;28;20480;-62
2023/10/14 08:21:52;;;;;;;4.70;1.77;;;;;;;14.55;100.00;99757.97;5030806;28;20092;-62
2023/10/14 08:24:20;;;;;;;5.88;1.70;;;;;;;14.44;99.27;99752.72;5025986;28;20128;-63
2023/10/14 08:26:49;;;;;;;9.88;1.67;;;;;;;13.97;100.00;99773.63;5022687;28;20156;-61
2023/10/14 08:29:19;;;;;;;5.63;1.50;;;;;;;13.98;99.31;99758.59;5028897;28;20072;-64
2023/10/14 08:31:51;;;;;;;12.05;1.85;;;;;;;14.04;99.31;99766.00;5019989;28;20128;-63
2023/10/14 08:34:23;;;;;;;7.82;1.75;;;;;;;13.99;99.97;99763.75;5019346;28;20057;-63
2023/10/14 08:36:51;;;;;;;3.05;1.48;;;;;;;14.33;100.00;99774.03;5025624;28;20081;-62
2023/10/14 08:39:23;;;;;;;9.02;2.10;;;;;;;14.29;97.95;99778.75;5026532;28;20542;-62
2023/10/14 08:41:55;;;;;;;12.43;1.90;;;;;;;14.18;95.63;99784.16;5028614;28;20089;-62
2023/10/14 08:44:26;;;;;;;17.92;2.47;;;;;;;14.28;93.63;99781.56;5009684;28;20057;-62
2023/10/14 08:46:53;;;;;;;7.03;1.80;;;;;;;14.02;92.44;99792.59;5027164;28;20759;-62
2023/10/14 08:49:25;;;;;;;8.02;2.05;;;;;;;13.91;94.21;99806.75;5007196;28;20127;-62
2023/10/14 08:51:53;;;;;;;7.78;1.67;;;;;;;14.03;92.70;99802.19;5010247;28;20074;-62
2023/10/14 08:54:25;;;;;;;12.50;2.38;;;;;;;13.88;92.40;99814.94;5008710;28;20662;-62
2023/10/14 08:56:52;;;;;;;11.57;2.15;;;;;;;14.26;91.05;99810.78;5025569;28;20168;-61
2023/10/14 08:59:22;;;;;;;8.38;1.92;;;;;;;14.72;87.54;99808.56;5026932;28;20095;-64
2023/10/14 09:01:53;;;;;;;9.52;2.22;;;;;;;14.63;86.80;99827.00;5020318;28;20057;-62
2023/10/14 09:04:28;;;;;;;7.03;2.22;;;;;;;14.69;86.95;99830.91;5023741;28;20132;-63
2023/10/14 09:07:02;;;;;;;12.55;2.30;;;;;;;14.43;86.98;99831.34;5023037;28;20084;-63
2023/10/14 09:09:32;;;;;;;10.70;1.92;;;;;;;14.31;84.56;99834.22;5022729;28;20469;-63
2023/10/14 09:12:11;;;;;;;14.45;2.55;;;;;;;14.29;84.60;99841.47;5005147;28;20091;-63
2023/10/14 09:14:40;;;;;;;10.25;2.40;;;;;;;14.57;84.96;99842.56;5023807;28;20089;-63
2023/10/14 09:17:10;;;;;;;10.45;2.17;;;;;;;14.56;85.04;99852.31;5009934;28;20057;-63
2023/10/14 09:19:57;;;;;;;7.18;1.88;;;;;;;14.33;83.71;99858.78;5019395;28;20077;-62
2023/10/14 09:22:27;;;;;;;18.75;2.47;;;;;;;14.60;82.64;99874.94;5012904;28;20107;-62
2023/10/14 09:24:58;;;;;;;11.70;2.22;;;;;;;14.66;81.21;99863.78;5025695;28;20104;-63
2023/10/14 09:27:30;;;;;;;10.65;2.38;;;;;;;14.72;79.08;99867.69;5021020;28;20054;-63
2023/10/14 09:29:58;;;;;;;13.43;2.60;;;;;;;14.74;79.44;99865.75;5007629;28;20073;-61
2023/10/14 09:32:26;;;;;;;10.23;2.10;;;;;;;15.20;78.77;99878.38;5026905;28;20099;-63
2023/10/14 09:34:55;;;;;;;15.43;2.22;;;;;;;15.46;77.51;99883.16;5020222;28;20141;-63
2023/10/14 09:37:23;;;;;;;11.57;2.50;;;;;;;15.59;76.26;99874.94;5025176;28;20061;-65
2023/10/14 09:39:57;;;;;;;13.55;2.50;;;;;;;15.94;74.46;99898.25;5023840;28;20650;-61
2023/10/14 09:42:30;;;;;;;12.55;2.58;;;;;;;15.53;73.01;99886.91;5006602;28;20089;-62
2023/10/14 09:45:09;;;;;;;7.35;1.58;;;;;;;15.68;70.74;99904.13;5029796;28;20132;-63
2023/10/14 09:47:40;;;;;;;7.13;2.80;;;;;;;15.35;71.25;99913.28;5010352;28;20085;-62
2023/10/14 09:50:13;;;;;;;11.75;2.40;;;;;;;14.93;72.13;99912.66;5025199;28;20100;-61
2023/10/14 09:52:47;;;;;;;7.78;1.52;;;;;;;14.68;73.11;99908.69;5026506;28;20084;-62
2023/10/14 09:55:15;;;;;;;13.65;3.17;;;;;;;15.09;73.33;99917.47;5011849;28;20085;-63
2023/10/14 09:57:45;;;;;;;15.43;2.42;;;;;;;15.54;71.98;99911.66;5029758;28;20100;-63
2023/10/14 10:00:16;;;;;;;11.25;2.67;;;;;;;15.87;68.68;99913.06;5005626;28;20052;-62
2023/10/14 10:02:46;;;;;;;14.02;2.50;;;;;;;16.14;67.91;99918.44;5005910;28;20076;-64
2023/10/14 10:05:17;;;;;;;9.05;2.58;;;;;;;16.39;65.43;99924.09;5011227;28;20579;-63
2023/10/14 10:08:04;;;;;;;11.35;2.08;;;;;;;16.12;64.60;99954.06;5011187;28;20061;-64
2023/10/14 10:10:32;;;;;;;11.35;2.20;;;;;;;15.60;64.70;99935.78;5009339;28;20119;-64
2023/10/14 10:13:00;;;;;;;6.45;1.80;;;;;;;15.24;65.66;99936.47;5031864;28;20423;-63
2023/10/14 10:15:29;;;;;;;12.02;2.33;;;;;;;15.35;64.90;99941.63;5014467;28;20049;-62
2023/10/14 10:18:16;;;;;;;10.23;2.05;;;;;;;15.47;65.34;99953.78;4997121;28;20472;-62
2023/10/14 10:20:56;;;;;;;10.30;2.25;;;;;;;15.30;66.13;99947.34;5011260;28;20156;-63
2023/10/14 10:23:29;;;;;;;9.10;2.28;;;;;;;15.41;65.82;99947.22;5011842;28;20049;-62
2023/10/14 10:25:59;;;;;;;9.68;2.05;;;;;;;15.26;66.22;99951.25;5010234;28;20061;-62
2023/10/14 10:28:26;;;;;;;11.90;2.20;;;;;;;14.94;65.71;99946.13;5023728;28;20070;-62
2023/10/14 10:30:58;;;;;;;12.70;2.55;;;;;;;15.15;65.37;99944.25;5021764;28;20150;-64
2023/10/14 10:33:49;;;;;;;10.57;2.13;;;;;;;15.23;65.44;99961.31;5024030;28;20188;-62
2023/10/14 10:36:25;;;;;;;9.52;2.33;;;;;;;15.10;64.50;99957.09;5028351;28;20069;-62
2023/10/14 10:38:56;;;;;;;11.32;2.10;;;;;;;15.24;63.94;99952.38;5008252;28;20160;-62
2023/10/14 10:41:27;;;;;;;8.48;1.75;;;;;;;15.13;63.88;99948.88;5010396;28;20042;-62
2023/10/14 10:44:01;;;;;;;7.30;2.25;;;;;;;15.01;63.98;99968.50;5023410;28;20138;-62
2023/10/14 10:46:40;;;;;;;12.10;2.00;;;;;;;14.82;64.12;99979.03;5023580;28;20612;-62
2023/10/14 10:49:11;;;;;;;7.90;2.00;;;;;;;14.84;64.74;99992.97;5025960;28;20049;-63
2023/10/14 10:51:53;;;;;;;9.60;1.85;;;;;;;14.94;65.01;99978.78;5015752;28;20053;-62
2023/10/14 10:54:22;;;;;;;8.45;2.15;;;;;;;15.06;65.15;99984.00;5036512;28;20080;-63
2023/10/14 10:56:50;;;;;;;9.65;1.90;;;;;;;15.06;64.85;99992.78;5034532;28;20076;-63
2023/10/14 10:59:37;;;;;;;6.15;2.08;;;;;;;14.67;65.87;100002.38;5031723;28;20054;-63
2023/10/14 11:02:08;;;;;;;16.25;2.40;;;;;;;14.67;64.17;100010.31;5028448;28;20049;-63
2023/10/14 11:04:38;;;;;;;10.50;2.42;;;;;;;14.69;65.26;100017.19;5027007;28;20057;-62
2023/10/14 11:07:06;;;;;;;15.40;3.85;;;;;;;14.48;64.48;100011.06;5022625;28;20077;-64
2023/10/14 11:09:39;;;;;;;16.23;2.35;;;;;;;14.46;64.88;100007.69;5010422;28;20139;-62
2023/10/14 11:12:11;;;;;;;15.88;3.53;;;;;;;14.76;64.49;100012.19;5024267;28;20056;-62
2023/10/14 11:14:39;;;;;;;14.52;2.95;;;;;;;14.91;64.31;100025.94;5028929;28;20574;-63
2023/10/14 11:17:07;;;;;;;11.23;2.65;;;;;;;14.78;64.29;100009.41;5025562;28;20129;-62
2023/10/14 11:19:37;;;;;;;14.45;2.75;;;;;;;14.53;63.39;100005.38;5023254;28;20137;-62
2023/10/14 11:22:07;;;;;;;16.60;2.58;;;;;;;14.29;62.87;100013.56;5019850;28;20049;-61
2023/10/14 11:24:35;;;;;;;11.90;2.50;;;;;;;14.26;63.40;100019.09;5008452;28;20111;-61
2023/10/14 11:27:03;;;;;;;9.88;2.70;;;;;;;14.39;63.06;99998.56;5027765;28;20049;-61
2023/10/14 11:29:33;;;;;;;12.32;2.53;;;;;;;14.41;62.14;100023.13;5022816;28;20057;-62
2023/10/14 11:32:02;;;;;;;15.35;2.33;;;;;;;14.46;61.60;100028.03;5012878;28;20088;-63
2023/10/14 11:34:34;;;;;;;10.13;2.00;;;;;;;15.21;59.26;100025.06;5026477;28;20099;-62
2023/10/14 11:37:02;;;;;;;11.02;2.42;;;;;;;16.09;55.09;100028.72;5025611;28;20053;-62
2023/10/14 11:39:32;;;;;;;12.60;3.63;;;;;;;15.89;55.10;100027.88;5026865;28;20650;-63
2023/10/14 11:42:02;;;;;;;8.75;2.22;;;;;;;16.37;55.49;100029.69;5026680;28;20049;-60
2023/10/14 11:44:29;;;;;;;9.60;2.67;;;;;;;16.80;53.49;100036.34;5025811;28;20462;-63
2023/10/14 11:46:59;;;;;;;10.13;2.15;;;;;;;18.10;50.20;100029.88;5021099;28;20170;-63
2023/10/14 11:49:30;;;;;;;9.63;2.38;;;;;;;19.33;45.82;100044.84;5023537;28;20069;-62
2023/10/14 11:52:00;;;;;;;13.32;2.03;;;;;;;19.14;46.45;100045.09;5025996;28;20081;-62
2023/10/14 11:54:27;;;;;;;9.18;2.17;;;;;;;20.03;44.75;100046.34;5024641;28;20132;-63
2023/10/14 11:56:55;;;;;;;6.43;1.90;;;;;;;21.54;41.84;100042.09;5022798;28;20057;-61
2023/10/14 11:59:22;;;;;;;7.50;2.08;;;;;;;22.50;40.65;100038.91;5026199;28;20083;-62
2023/10/14 12:01:49;;;;;;;10.48;1.80;;;;;;;22.17;38.58;100051.78;5024744;28;20150;-63
2023/10/14 12:04:17;;;;;;;10.80;2.67;;;;;;;20.66;40.32;100045.69;5028147;28;20053;-62
2023/10/14 12:06:45;;;;;;;10.40;2.45;;;;;;;19.04;43.50;100050.53;5025326;28;20516;-62
2023/10/14 12:09:12;;;;;;;6.05;1.92;;;;;;;18.75;42.93;100074.03;5028365;28;20536;-61
2023/10/14 12:11:43;;;;;;;11.23;1.90;;;;;;;19.56;40.69;100052.25;5001632;28;20046;-62
2023/10/14 12:14:11;;;;;;;8.13;1.65;;;;;;;21.64;36.81;100053.41;5019601;28;20076;-62
2023/10/14 12:16:42;;;;;;;8.52;1.88;;;;;;;19.00;41.43;100059.00;5026852;28;20053;-63
2023/10/14 12:19:14;;;;;;;8.40;1.98;;;;;;;19.31;41.97;100061.97;5002613;28;20096;-62
2023/10/14 12:21:42;;;;;;;10.75;2.13;;;;;;;19.50;41.65;100101.78;5027934;28;20148;-63
2023/10/14 12:24:09;;;;;;;6.63;1.70;;;;;;;19.35;41.62;100068.69;5024365;28;20096;-64
2023/10/14 12:26:46;;;;;;;8.90;2.08;;;;;;;19.28;42.12;100078.34;5025760;28;20520;-63
2023/10/14 12:29:14;;;;;;;11.60;2.63;;;;;;;17.95;44.95;100063.34;5022606;28;20081;-64
2023/10/14 12:31:44;;;;;;;10.02;2.28;;;;;;;17.42;46.67;100067.53;5024792;28;21338;-64
2023/10/14 12:34:14;;;;;;;14.68;2.40;;;;;;;17.27;47.44;100078.84;5023824;28;20486;-62
2023/10/14 12:36:44;;;;;;;7.43;2.00;;;;;;;17.97;46.64;100085.34;5017862;28;20153;-63